Terminal Aerodrome Forecast
Issued by NWS

Home | Current Version | Previous Version | Text Only | Print | Product List | Glossary On
Versions: 1 2 3 4 5 6 7 8 9 10 11 12 13 14 15 16 17 18 19
652
FTUS46 KMTR 210525
TAFMRY
TAF
KMRY 210525Z 2106/2206 20005KT P6SM FEW020 SCT180
     FM210800 11004KT P6SM SCT018 SCT150
     FM211600 10003KT P6SM FEW020 BKN150
     FM212000 31005KT P6SM SCT020 BKN120
     FM220500 10004KT P6SM VCSH SCT018 OVC080=

USA.gov is the U.S. government's official web portal to all federal, state and local government web resources and services.